地図

経路データ

SID SEASON NUMBER BASIN SUBBASIN NAME ISO_TIME NATURE LAT LON WMO_WIND WMO_PRES WMO_AGENCY TRACK_TYPE DIST2LAND LANDFALL IFLAG USA_AGENCY USA_ATCF_ID USA_LAT USA_LON USA_RECORD USA_STATUS USA_WIND USA_PRES USA_SSHS USA_R34_NE USA_R34_SE USA_R34_SW USA_R34_NW USA_R50_NE USA_R50_SE USA_R50_SW USA_R50_NW USA_R64_NE USA_R64_SE USA_R64_SW USA_R64_NW USA_POCI USA_ROCI USA_RMW USA_EYE TOKYO_LAT TOKYO_LON TOKYO_GRADE TOKYO_WIND TOKYO_PRES TOKYO_R50_DIR TOKYO_R50_LONG TOKYO_R50_SHORT TOKYO_R30_DIR TOKYO_R30_LONG TOKYO_R30_SHORT TOKYO_LAND CMA_LAT CMA_LON CMA_CAT CMA_WIND CMA_PRES HKO_LAT HKO_LON HKO_CAT HKO_WIND HKO_PRES NEWDELHI_LAT NEWDELHI_LON NEWDELHI_GRADE NEWDELHI_WIND NEWDELHI_PRES NEWDELHI_CI NEWDELHI_DP NEWDELHI_POCI REUNION_LAT REUNION_LON REUNION_TYPE REUNION_WIND REUNION_PRES REUNION_TNUM REUNION_CI REUNION_RMW REUNION_R34_NE REUNION_R34_SE REUNION_R34_SW REUNION_R34_NW REUNION_R50_NE REUNION_R50_SE REUNION_R50_SW REUNION_R50_NW REUNION_R64_NE REUNION_R64_SE REUNION_R64_SW REUNION_R64_NW BOM_LAT BOM_LON BOM_TYPE BOM_WIND BOM_PRES BOM_TNUM BOM_CI BOM_RMW BOM_R34_NE BOM_R34_SE BOM_R34_SW BOM_R34_NW BOM_R50_NE BOM_R50_SE BOM_R50_SW BOM_R50_NW BOM_R64_NE BOM_R64_SE BOM_R64_SW BOM_R64_NW BOM_ROCI BOM_POCI BOM_EYE BOM_POS_METHOD BOM_PRES_METHOD NADI_LAT NADI_LON NADI_CAT NADI_WIND NADI_PRES WELLINGTON_LAT WELLINGTON_LON WELLINGTON_WIND WELLINGTON_PRES DS824_LAT DS824_LON DS824_STAGE DS824_WIND DS824_PRES TD9636_LAT TD9636_LON TD9636_STAGE TD9636_WIND TD9636_PRES TD9635_LAT TD9635_LON TD9635_WIND TD9635_PRES TD9635_ROCI NEUMANN_LAT NEUMANN_LON NEUMANN_CLASS NEUMANN_WIND NEUMANN_PRES MLC_LAT MLC_LON MLC_CLASS MLC_WIND MLC_PRES USA_GUST BOM_GUST BOM_GUST_PER REUNION_GUST REUNION_GUST_PER USA_SEAHGT USA_SEARAD_NE USA_SEARAD_SE USA_SEARAD_SW USA_SEARAD_NW STORM_SPEED STORM_DIR
1974183N15249 1974 53 EP MM EILEEN 1974-07-02 00:00:00 TS 15.1000 -111.000 35 hurdat_epa main 794 749 O________OO___ hurdat_epa EP051974 15.1000 -111.000 TS 35 0 15.1000 -111.000 TC 35 15.1000 -111.000 2 35 11 5
1974183N15249 1974 53 EP MM EILEEN 1974-07-02 03:00:00 TS 15.6657 -110.946 main 743 710 P________PP___ EP051974 15.6700 -110.940 TS 35 0 15.6700 -110.940 TC 35 15.6485 -110.970 2 35 11 5
1974183N15249 1974 53 EP MM EILEEN 1974-07-02 06:00:00 TS 16.1935 -110.909 35 hurdat_epa main 710 685 O________OP___ hurdat_epa EP051974 16.2000 -110.900 TS 35 0 16.2000 -110.900 TC 35 16.1676 -110.943 2 35 10 2
1974183N15249 1974 53 EP MM EILEEN 1974-07-02 09:00:00 TS 16.6476 -110.898 main 685 660 P________PP___ EP051974 16.6525 -110.892 TS 35 0 16.6525 -110.892 TC 35 16.6279 -110.918 2 35 8 2
1974183N15249 1974 53 EP MM EILEEN 1974-07-02 12:00:00 TS 17.0000 -110.900 35 hurdat_epa main 660 644 O________OO___ hurdat_epa EP051974 17.0000 -110.900 TS 35 0 17.0000 -110.900 TC 35 17.0000 -110.900 2 35 6 0
1974183N15249 1974 53 EP MM EILEEN 1974-07-02 15:00:00 TS 17.2374 -110.892 main 644 622 P________PP___ EP051974 17.2300 -110.893 TS 35 0 17.2300 -110.893 TC 35 17.2668 -110.890 2 33 4 0
1974183N15249 1974 53 EP MM EILEEN 1974-07-02 18:00:00 TS 17.4120 -110.900 35 hurdat_epa main 622 600 O________OP___ hurdat_epa EP051974 17.4000 -110.900 TS 35 0 17.4000 -110.900 TC 35 17.4599 -110.898 2 32 4 353
1974183N15249 1974 53 EP MM EILEEN 1974-07-02 21:00:00 TS 17.5926 -110.934 main 600 579 P________PP___ EP051974 17.5850 -110.935 TS 30 -1 17.5850 -110.935 TC 30 17.6230 -110.931 2 31 4 346
1974183N15249 1974 53 EP MM EILEEN 1974-07-03 00:00:00 TS 17.8000 -111.000 25 hurdat_epa main 579 548 O________OO___ hurdat_epa EP051974 17.8000 -111.000 TD 25 -1 17.8000 -111.000 TC 25 17.8000 -111.000 1 30 5 344
1974183N15249 1974 53 EP MM EILEEN 1974-07-03 03:00:00 TS 18.0871 -111.082 main 548 518 P________PP___ EP051974 18.0925 -111.078 TD 25 -1 18.0925 -111.078 TC 25 18.0656 -111.098 1 28 6 342
1974183N15249 1974 53 EP MM EILEEN 1974-07-03 06:00:00 TS 18.3900 -111.206 25 hurdat_epa main 518 499 O________OP___ hurdat_epa EP051974 18.4000 -111.200 TD 25 -1 18.4000 -111.200 TC 25 18.3499 -111.232 1 27 6 333
1974183N15249 1974 53 EP MM EILEEN 1974-07-03 09:00:00 TS 18.6529 -111.388 main 491 477 P________PP___ EP051974 18.6575 -111.385 TD 25 -1 18.6575 -111.385 TC 25 18.6343 -111.401 1 26 6 324
1974183N15249 1974 53 EP MM EILEEN 1974-07-03 12:00:00 TS 18.9000 -111.600 25 hurdat_epa main 477 460 O________OO___ hurdat_epa EP051974 18.9000 -111.600 TD 25 -1 18.9000 -111.600 TC 25 18.9000 -111.600 1 25 6 323
1974183N15249 1974 53 EP MM EILEEN 1974-07-03 15:00:00 TS 19.1603 -111.788 main 453 442 P________PP___ EP051974 19.1649 -111.785 TD 25 -1 19.1649 -111.785 TC 25 19.1417 -111.801 1 26 6 322
1974183N15249 1974 53 EP MM EILEEN 1974-07-03 18:00:00 TS 19.3919 -112.007 25 hurdat_epa main 442 433 O________OP___ hurdat_epa EP051974 19.4000 -112.000 TD 25 -1 19.4000 -112.000 TC 25 19.3597 -112.032 1 27 6 311
1974183N15249 1974 53 EP MM EILEEN 1974-07-03 21:00:00 TS 19.5675 -112.282 main 439 439 P________PP___ EP051974 19.5725 -112.278 TD 25 -1 19.5725 -112.278 TC 25 19.5478 -112.298 1 28 6 299
1974183N15249 1974 53 EP MM EILEEN 1974-07-04 00:00:00 TS 19.7000 -112.600 25 hurdat_epa main 447 445 O________OO___ hurdat_epa EP051974 19.7000 -112.600 TD 25 -1 19.7000 -112.600 TC 25 19.7000 -112.600 1 30 7 292
1974183N15249 1974 53 EP MM EILEEN 1974-07-04 03:00:00 TS 19.8145 -112.936 main 458 458 P________PP___ EP051974 19.8149 -112.935 TD 25 -1 19.8149 -112.935 TC 25 19.8127 -112.940 1 28 7 287
1974183N15249 1974 53 EP MM EILEEN 1974-07-04 06:00:00 TS 19.8987 -113.302 25 hurdat_epa main 478 478 O________OP___ hurdat_epa EP051974 19.9000 -113.300 TD 25 -1 19.9000 -113.300 TC 25 19.8934 -113.310 1 27 7 281
1974183N15249 1974 53 EP MM EILEEN 1974-07-04 09:00:00 TS 19.9566 -113.694 main 501 501 P________PP___ EP051974 19.9577 -113.692 TD 25 -1 19.9577 -113.692 TC 25 19.9524 -113.700 1 26 8 278
1974183N15249 1974 53 EP MM EILEEN 1974-07-04 12:00:00 TS 20.0000 -114.100 25 hurdat_epa main 533 O________OO___ hurdat_epa EP051974 20.0000 -114.100 TD 25 -1 20.0000 -114.100 TC 25 20.0000 -114.100 1 25 8 276

IBTrACS Databaseについて

本データベースは、米国NOAAが公開する1842年以降の世界の熱帯低気圧のベストトラックデータアーカイブInternational Best Track Archive for Climate Stewardship (IBTrACS)を、ウェブで閲覧しやすい形式に変換したものです。

最終更新日:2021-10-21